createdAt,value
2019-03-06T10:26:22.808Z,884.00
2019-03-06T10:27:22.759Z,764.00
2019-03-06T10:28:27.825Z,876.00
2019-03-06T10:29:23.666Z,808.00
2019-03-06T10:30:22.618Z,888.00
2019-03-06T10:31:22.569Z,840.00
2019-03-06T10:32:22.537Z,764.00
2019-03-06T10:33:22.474Z,804.00
2019-03-06T10:34:22.418Z,772.00
2019-03-06T10:35:22.366Z,804.00
2019-03-06T10:36:22.318Z,764.00
2019-03-06T10:37:22.258Z,732.00
2019-03-06T10:38:22.180Z,660.00
2019-03-06T10:39:22.111Z,844.00
2019-03-06T10:40:22.041Z,768.00
2019-03-06T10:41:21.983Z,764.00
2019-03-06T10:42:21.965Z,744.00
2019-03-06T10:43:23.693Z,700.00
2019-03-06T10:44:28.801Z,612.00
2019-03-06T10:45:22.717Z,640.00
2019-03-06T10:46:21.651Z,692.00
2019-03-06T10:47:21.612Z,668.00
2019-03-06T10:48:21.519Z,584.00
2019-03-06T10:49:21.451Z,492.00
2019-03-06T10:50:26.809Z,456.00
2019-03-06T10:51:22.321Z,404.00
2019-03-06T10:52:21.247Z,444.00
2019-03-06T10:53:21.185Z,444.00
2019-03-06T10:54:21.119Z,428.00
2019-03-06T10:55:21.062Z,580.00
2019-03-06T10:56:20.987Z,636.00
2019-03-06T10:57:20.959Z,476.00
2019-03-06T10:58:20.869Z,352.00
2019-03-06T10:59:20.781Z,340.00
2019-03-06T11:00:20.706Z,380.00
2019-03-06T11:01:20.636Z,388.00
2019-03-06T11:02:20.573Z,396.00
2019-03-06T11:03:20.514Z,384.00
2019-03-06T11:04:20.436Z,372.00
2019-03-06T11:05:20.367Z,380.00
2019-03-06T11:06:20.297Z,396.00
2019-03-06T11:07:20.225Z,432.00
2019-03-06T11:08:20.169Z,476.00
2019-03-06T11:09:20.089Z,492.00
2019-03-06T11:10:23.964Z,460.00
2019-03-06T11:11:20.945Z,552.00
2019-03-06T11:12:19.871Z,540.00
2019-03-06T11:13:19.821Z,596.00
2019-03-06T11:14:19.742Z,520.00
2019-03-06T11:15:19.659Z,596.00
2019-03-06T11:16:19.588Z,596.00
2019-03-06T11:17:19.526Z,572.00
2019-03-06T11:18:19.456Z,408.00
2019-03-06T11:19:19.366Z,576.00
2019-03-06T11:20:19.293Z,548.00
2019-03-06T11:21:19.222Z,564.00
2019-03-06T11:22:19.147Z,536.00
2019-03-06T11:23:19.082Z,584.00
2019-03-06T11:24:19.001Z,492.00
2019-03-06T11:25:18.929Z,460.00
2019-03-06T11:26:18.853Z,432.00
2019-03-06T11:27:18.798Z,456.00
2019-03-06T11:28:18.722Z,488.00
2019-03-06T11:29:19.495Z,492.00
2019-03-06T11:30:18.570Z,464.00
2019-03-06T11:31:18.501Z,496.00
2019-03-06T11:32:18.421Z,508.00
2019-03-06T11:33:18.359Z,544.00
2019-03-06T11:34:18.276Z,540.00
2019-03-06T11:35:18.209Z,520.00
2019-03-06T11:36:18.130Z,492.00
2019-03-06T11:37:18.057Z,464.00
2019-03-06T11:38:17.996Z,460.00
2019-03-06T11:39:17.894Z,480.00
2019-03-06T11:40:17.815Z,504.00
2019-03-06T11:41:17.749Z,512.00
2019-03-06T11:42:17.666Z,520.00
2019-03-06T11:43:17.592Z,516.00
2019-03-06T11:44:17.528Z,512.00
2019-03-06T11:45:17.453Z,500.00
2019-03-06T11:46:17.374Z,492.00
2019-03-06T11:47:17.294Z,472.00
2019-03-06T11:48:17.220Z,468.00
2019-03-06T11:49:17.161Z,464.00
2019-03-06T11:50:17.089Z,476.00
2019-03-06T11:51:17.003Z,484.00
2019-03-06T11:52:16.929Z,504.00
2019-03-06T11:53:16.851Z,512.00
2019-03-06T11:54:16.881Z,512.00
2019-03-06T11:55:16.707Z,528.00
2019-03-06T11:56:16.636Z,544.00
2019-03-06T11:57:16.563Z,536.00
2019-03-06T11:58:16.489Z,592.00
2019-03-06T11:59:16.425Z,588.00
2019-03-06T12:00:16.345Z,548.00
2019-03-06T12:01:16.271Z,556.00
2019-03-06T12:02:16.958Z,576.00
2019-03-06T12:03:16.119Z,560.00
2019-03-06T12:04:16.069Z,516.00
2019-03-06T12:05:15.970Z,496.00
2019-03-06T12:06:15.897Z,504.00
2019-03-06T12:07:15.873Z,492.00
2019-03-06T12:08:15.758Z,480.00
2019-03-06T12:09:15.695Z,448.00
2019-03-06T12:10:15.620Z,436.00
2019-03-06T12:11:15.541Z,448.00
2019-03-06T12:12:15.466Z,416.00
2019-03-06T12:13:15.391Z,416.00
2019-03-06T12:14:15.331Z,408.00
2019-03-06T12:15:15.247Z,412.00
2019-03-06T12:16:15.165Z,420.00
2019-03-06T12:17:15.100Z,428.00
2019-03-06T12:18:15.013Z,440.00
2019-03-06T12:19:14.955Z,444.00
2019-03-06T12:20:14.862Z,448.00
2019-03-06T12:21:14.789Z,460.00
2019-03-06T12:22:14.723Z,468.00
2019-03-06T12:23:14.639Z,496.00
2019-03-06T12:24:14.574Z,512.00
2019-03-06T12:25:14.491Z,524.00
2019-03-06T12:26:14.424Z,504.00
2019-03-06T12:27:14.351Z,504.00
2019-03-06T12:28:14.279Z,524.00
2019-03-06T12:29:14.225Z,472.00
2019-03-06T12:30:14.144Z,476.00
2019-03-06T12:31:14.083Z,520.00
2019-03-06T12:32:14.017Z,552.00
2019-03-06T12:33:13.942Z,520.00
2019-03-06T12:34:13.867Z,516.00
2019-03-06T12:35:13.824Z,484.00
2019-03-06T12:36:13.738Z,488.00
2019-03-06T12:37:13.680Z,472.00
2019-03-06T12:38:13.664Z,548.00
2019-03-06T12:39:13.550Z,468.00
2019-03-06T12:40:14.853Z,480.00
2019-03-06T12:41:13.398Z,456.00
2019-03-06T12:42:14.567Z,440.00
2019-03-06T12:43:13.254Z,424.00
